East Blacksea — T2ZH3 — position and weather

sailwx.info

Track history (hours):
 
Tides and Currents Weather Stations Pressure Air Temp Water Temp Dewpoint Dewpoint Depression Visibility Wind Speed Wind Dir Waves Ship Positions

East Blacksea

Last reported at 2016-Aug-29 10:04 UTC. Time now 2016-Aug-30 09:05 UTC.
Position N 37°10' E 012°03'.

Length 69 m; draft 3.8 m.

Type: Cargo ship. MMSI: 572341210.

Date/timePositionNaut miles runAvg speedWind from/ knotsBaromVisibWave heightAir tempDewpointWater temp
2016-Aug-29 10:04N 37°10' E 012°03'4 7.1
2016-Aug-29 09:33N 37°09' E 012°07'7 7.1
2016-Aug-29 08:30N 37°06' E 012°16'7 7.4
2016-Aug-29 07:33N 37°04' E 012°24'8 7.5
2016-Aug-29 06:33N 37°02' E 012°34'7 7.4
2016-Aug-29 05:33N 36°60' E 012°42'7 7.3
2016-Aug-29 04:33N 36°58' E 012°51'10 7.1
2016-Aug-29 03:13N 36°54' E 013°02'5 7.4
2016-Aug-29 02:33N 36°52' E 013°08'7 7.4
2016-Aug-29 01:33N 36°50' E 013°17'9 7.0
2016-Aug-29 00:18N 36°47' E 013°27'7 6.7
2016-Aug-28 23:15N 36°44' E 013°35'5 6.5
2016-Aug-28 22:24N 36°42' E 013°42'6 6.5
2016-Aug-28 21:33N 36°41' E 013°48'7 6.7
2016-Aug-28 20:33N 36°39' E 013°56'7 7.1
2016-Aug-28 19:33N 36°37' E 014°05'7 7.1
2016-Aug-28 18:33N 36°35' E 014°13'7 7.1
2016-Aug-28 17:33N 36°33' E 014°22'7 7.1
2016-Aug-28 16:33N 36°30' E 014°30'7 7.0
2016-Aug-28 15:33N 36°28' E 014°39'7 7.0
2016-Aug-28 14:33N 36°26' E 014°47'7 7.0
2016-Aug-28 13:33N 36°24' E 014°55'16 7.1
2016-Aug-28 11:18N 36°19' E 015°14'  
Track history (hours):
 
Tides and Currents Weather Stations Pressure Air Temp Water Temp Dewpoint Dewpoint Depression Visibility Wind Speed Wind Dir Waves Ship Positions

East Blacksea

Last reported at 2016-Aug-29 10:04 UTC. Time now 2016-Aug-30 09:05 UTC.
Position N 37°10' E 012°03'.

Length 69 m; draft 3.8 m.

Type: Cargo ship. MMSI: 572341210.

Date/timePositionNaut miles runAvg speedWind from/ knotsBaromVisibWave heightAir tempDewpointWater temp
2016-Aug-29 10:04N 37°10' E 012°03'4 7.1
2016-Aug-29 09:33N 37°09' E 012°07'7 7.1
2016-Aug-29 08:30N 37°06' E 012°16'7 7.4
2016-Aug-29 07:33N 37°04' E 012°24'8 7.5
2016-Aug-29 06:33N 37°02' E 012°34'7 7.4
2016-Aug-29 05:33N 36°60' E 012°42'7 7.3
2016-Aug-29 04:33N 36°58' E 012°51'10 7.1
2016-Aug-29 03:13N 36°54' E 013°02'5 7.4
2016-Aug-29 02:33N 36°52' E 013°08'7 7.4
2016-Aug-29 01:33N 36°50' E 013°17'9 7.0
2016-Aug-29 00:18N 36°47' E 013°27'7 6.7
2016-Aug-28 23:15N 36°44' E 013°35'5 6.5
2016-Aug-28 22:24N 36°42' E 013°42'6 6.5
2016-Aug-28 21:33N 36°41' E 013°48'7 6.7
2016-Aug-28 20:33N 36°39' E 013°56'7 7.1
2016-Aug-28 19:33N 36°37' E 014°05'7 7.1
2016-Aug-28 18:33N 36°35' E 014°13'7 7.1
2016-Aug-28 17:33N 36°33' E 014°22'7 7.1
2016-Aug-28 16:33N 36°30' E 014°30'7 7.0
2016-Aug-28 15:33N 36°28' E 014°39'7 7.0
2016-Aug-28 14:33N 36°26' E 014°47'7 7.0
2016-Aug-28 13:33N 36°24' E 014°55'16 7.1
2016-Aug-28 11:18N 36°19' E 015°14'  

Dump ship's entire track history